createdAt,value
2018-04-30T00:01:08.715Z,57.90
2018-04-30T00:02:40.531Z,63.00
2018-04-30T00:04:12.345Z,65.30
2018-04-30T00:05:44.161Z,60.70
2018-04-30T00:07:16.080Z,62.30
2018-04-30T00:08:47.795Z,68.10
2018-04-30T00:10:19.607Z,74.20
2018-04-30T00:11:51.427Z,67.10
2018-04-30T00:13:23.237Z,70.50
2018-04-30T00:14:55.052Z,68.80
2018-04-30T00:16:26.867Z,64.80
2018-04-30T00:17:58.681Z,64.50
2018-04-30T00:19:30.497Z,70.60
2018-04-30T00:21:02.312Z,70.90
2018-04-30T00:22:34.127Z,73.20
2018-04-30T00:24:05.942Z,78.00
2018-04-30T00:25:37.859Z,78.40
2018-04-30T00:27:09.571Z,76.20
2018-04-30T00:28:41.385Z,70.60
2018-04-30T00:30:13.200Z,64.90
2018-04-30T00:31:45.015Z,60.50
2018-04-30T00:33:16.828Z,73.10
2018-04-30T00:34:48.643Z,77.70
2018-04-30T00:36:20.457Z,91.10
2018-04-30T00:37:52.273Z,83.70
2018-04-30T00:39:24.087Z,75.90
2018-04-30T00:40:55.902Z,85.40
2018-04-30T00:42:27.715Z,80.50
2018-04-30T00:43:59.633Z,80.90
2018-04-30T00:45:31.344Z,93.10
2018-04-30T00:47:03.158Z,86.60
2018-04-30T00:48:34.975Z,89.50
2018-04-30T00:50:06.786Z,95.10
2018-04-30T00:51:38.601Z,98.90
2018-04-30T00:53:10.417Z,97.00
2018-04-30T00:54:42.229Z,98.50
2018-04-30T00:56:14.044Z,91.90
2018-04-30T00:57:45.858Z,100.70
2018-04-30T00:59:17.672Z,87.80
2018-04-30T01:00:49.486Z,88.80
2018-04-30T01:02:21.403Z,93.70
2018-04-30T01:03:53.115Z,88.60
2018-04-30T01:05:24.929Z,91.00
2018-04-30T01:06:56.743Z,88.00
2018-04-30T01:08:28.558Z,113.20
2018-04-30T01:10:00.372Z,120.00
2018-04-30T01:11:32.186Z,128.40
2018-04-30T01:13:04.000Z,123.20
2018-04-30T01:14:35.815Z,123.90
2018-04-30T01:16:07.629Z,120.60
2018-04-30T01:17:39.443Z,110.50
2018-04-30T01:19:11.257Z,109.20
2018-04-30T01:20:43.171Z,110.20
2018-04-30T01:22:14.885Z,111.40
2018-04-30T01:23:46.699Z,101.30
2018-04-30T01:25:18.513Z,106.10
2018-04-30T01:26:50.327Z,92.10
2018-04-30T01:28:22.141Z,98.00
2018-04-30T01:29:53.955Z,90.20
2018-04-30T01:31:25.776Z,91.00
2018-04-30T01:32:57.584Z,83.90
2018-04-30T01:34:29.397Z,98.30
2018-04-30T01:36:01.212Z,107.90
2018-04-30T01:37:33.026Z,101.90
2018-04-30T01:39:04.991Z,96.10
2018-04-30T01:40:36.656Z,95.40
2018-04-30T01:42:08.468Z,87.90
2018-04-30T01:43:40.281Z,89.90
2018-04-30T01:45:12.346Z,88.40
2018-04-30T01:46:43.912Z,85.40
2018-04-30T01:48:15.723Z,91.90
2018-04-30T01:49:47.537Z,87.10
2018-04-30T01:51:19.351Z,88.90
2018-04-30T01:52:51.167Z,84.50
2018-04-30T01:54:22.978Z,82.70
2018-04-30T01:55:54.793Z,82.60
2018-04-30T01:57:26.706Z,83.70
2018-04-30T01:58:58.420Z,100.90
2018-04-30T02:00:30.233Z,104.60
2018-04-30T02:02:02.049Z,118.20
2018-04-30T02:03:33.860Z,113.00
2018-04-30T02:05:05.674Z,119.20
2018-04-30T02:06:37.488Z,106.90
2018-04-30T02:08:09.301Z,104.70
2018-04-30T02:09:41.114Z,97.20
2018-04-30T02:11:12.928Z,102.10
2018-04-30T02:12:44.743Z,91.30
2018-04-30T02:14:16.557Z,89.20
2018-04-30T02:15:48.469Z,94.30
2018-04-30T02:17:20.182Z,91.80
2018-04-30T02:18:52.001Z,104.10
2018-04-30T02:20:23.809Z,101.70
2018-04-30T02:21:55.624Z,106.00
2018-04-30T02:23:27.437Z,105.50
2018-04-30T02:24:59.251Z,114.80
2018-04-30T02:26:31.063Z,105.40
2018-04-30T02:28:02.881Z,92.10
2018-04-30T02:29:34.691Z,79.70
2018-04-30T02:31:06.504Z,78.10
2018-04-30T02:32:38.322Z,86.70
2018-04-30T02:34:10.232Z,91.20
2018-04-30T02:35:41.947Z,88.40
2018-04-30T02:37:13.759Z,90.50
2018-04-30T02:38:45.574Z,85.80
2018-04-30T02:40:17.386Z,96.20
2018-04-30T02:41:49.200Z,82.50
2018-04-30T02:43:21.042Z,88.30
2018-04-30T02:44:52.836Z,88.40
2018-04-30T02:46:24.640Z,77.90
2018-04-30T02:47:56.454Z,96.50
2018-04-30T02:49:28.268Z,97.90
2018-04-30T02:51:00.081Z,98.10
2018-04-30T02:52:31.993Z,91.40
2018-04-30T02:54:03.711Z,72.70
2018-04-30T02:55:35.524Z,60.10
2018-04-30T02:57:07.334Z,71.30
2018-04-30T02:58:39.149Z,68.80
2018-04-30T03:00:10.961Z,79.30
2018-04-30T03:01:42.775Z,71.90
2018-04-30T03:03:14.587Z,81.00
2018-04-30T03:04:46.411Z,78.70
2018-04-30T03:06:18.218Z,70.20
2018-04-30T03:07:50.028Z,71.80
2018-04-30T03:09:21.842Z,79.40
2018-04-30T03:10:53.755Z,70.60
2018-04-30T03:12:25.474Z,74.60
2018-04-30T03:13:57.283Z,74.30
2018-04-30T03:15:29.096Z,74.10
2018-04-30T03:17:01.059Z,76.00
2018-04-30T03:18:32.723Z,73.80
2018-04-30T03:20:04.536Z,73.20
2018-04-30T03:21:36.349Z,77.50
2018-04-30T03:23:08.162Z,76.70
2018-04-30T03:24:39.976Z,76.30
2018-04-30T03:26:11.789Z,75.20
2018-04-30T03:27:43.603Z,83.80
2018-04-30T03:29:15.516Z,77.60
2018-04-30T03:30:47.243Z,78.50
2018-04-30T03:32:19.043Z,83.60
2018-04-30T03:33:50.869Z,93.20
2018-04-30T03:35:22.670Z,83.30
2018-04-30T03:36:54.483Z,79.00
2018-04-30T03:38:26.295Z,86.00
2018-04-30T03:39:58.109Z,87.10
2018-04-30T03:41:29.922Z,84.10
2018-04-30T03:43:01.735Z,84.80
2018-04-30T03:44:33.548Z,88.40
2018-04-30T03:46:05.375Z,83.30
2018-04-30T03:47:37.525Z,82.90
2018-04-30T03:49:08.988Z,87.50
2018-04-30T03:50:40.801Z,82.40
2018-04-30T03:52:12.616Z,83.80
2018-04-30T03:53:44.428Z,85.70
2018-04-30T03:55:16.240Z,88.20
2018-04-30T03:56:48.053Z,89.10
2018-04-30T03:58:19.866Z,93.40
2018-04-30T03:59:51.680Z,90.30
2018-04-30T04:01:23.493Z,94.60
2018-04-30T04:02:55.306Z,96.70
2018-04-30T04:04:27.123Z,116.00
2018-04-30T04:05:59.032Z,93.30
2018-04-30T04:07:30.744Z,102.50
2018-04-30T04:09:02.560Z,92.30
2018-04-30T04:10:34.380Z,100.80
2018-04-30T04:12:06.183Z,87.00
2018-04-30T04:13:37.997Z,104.30
2018-04-30T04:15:09.810Z,100.60
2018-04-30T04:16:41.623Z,91.00
2018-04-30T04:18:13.686Z,88.90
2018-04-30T04:19:45.248Z,66.60
2018-04-30T04:21:17.061Z,72.40
2018-04-30T04:22:48.874Z,82.20
2018-04-30T04:24:20.989Z,75.10
2018-04-30T04:25:52.500Z,90.20
2018-04-30T04:27:24.316Z,99.60
2018-04-30T04:28:56.125Z,84.50
2018-04-30T04:30:28.039Z,89.80
2018-04-30T04:31:59.751Z,75.60
2018-04-30T04:33:31.564Z,77.80
2018-04-30T04:35:03.379Z,74.70
2018-04-30T04:36:35.189Z,68.10
2018-04-30T04:38:07.003Z,80.00
2018-04-30T04:39:38.818Z,78.50
2018-04-30T04:41:10.628Z,83.30
2018-04-30T04:42:42.591Z,91.40
2018-04-30T04:44:14.254Z,87.90
2018-04-30T04:45:46.069Z,93.60
2018-04-30T04:47:17.879Z,105.20
2018-04-30T04:48:49.942Z,83.20
2018-04-30T04:50:21.505Z,73.70
2018-04-30T04:51:53.318Z,85.00
2018-04-30T04:53:25.137Z,83.80
2018-04-30T04:54:56.942Z,91.40
2018-04-30T04:56:28.756Z,85.90
2018-04-30T04:58:00.573Z,84.40
2018-04-30T04:59:32.383Z,68.10
2018-04-30T05:01:04.297Z,69.80
2018-04-30T05:02:36.006Z,68.00
2018-04-30T05:04:07.819Z,75.10
2018-04-30T05:05:39.632Z,70.20
2018-04-30T05:07:11.444Z,62.50
2018-04-30T05:08:43.258Z,68.00
2018-04-30T05:10:15.070Z,71.30
2018-04-30T05:11:46.883Z,65.10
2018-04-30T05:13:18.698Z,66.40
2018-04-30T05:14:50.508Z,67.80
2018-04-30T05:16:22.322Z,64.60
2018-04-30T05:17:54.134Z,67.80
2018-04-30T05:19:26.047Z,66.60
2018-04-30T05:20:57.831Z,73.40
2018-04-30T05:22:29.572Z,75.80
2018-04-30T05:24:01.385Z,70.60
2018-04-30T05:25:33.198Z,68.50
2018-04-30T05:27:05.011Z,73.20
2018-04-30T05:28:36.823Z,81.90
2018-04-30T05:30:08.638Z,70.20
2018-04-30T05:31:40.448Z,82.90
2018-04-30T05:33:12.617Z,68.40
2018-04-30T05:34:44.080Z,63.10
2018-04-30T05:36:15.887Z,65.80
2018-04-30T05:37:47.801Z,70.30
2018-04-30T05:39:19.513Z,64.10
2018-04-30T05:40:51.325Z,65.50
2018-04-30T05:42:23.138Z,67.60
2018-04-30T05:43:54.951Z,64.40
2018-04-30T05:45:26.976Z,62.60
2018-04-30T05:46:58.580Z,66.30
2018-04-30T05:48:30.389Z,57.00
2018-04-30T05:50:02.453Z,74.30
2018-04-30T05:51:34.015Z,59.20
2018-04-30T05:53:05.835Z,55.70
2018-04-30T05:54:37.640Z,64.50
2018-04-30T05:56:09.552Z,49.20
2018-04-30T05:57:41.265Z,53.60
2018-04-30T05:59:13.078Z,53.40
2018-04-30T06:00:44.890Z,47.50
2018-04-30T06:02:16.706Z,52.70
2018-04-30T06:03:48.518Z,43.30
2018-04-30T06:05:20.328Z,43.30
2018-04-30T06:06:52.186Z,45.30
2018-04-30T06:08:23.953Z,45.40
2018-04-30T06:09:55.766Z,44.20
2018-04-30T06:11:27.580Z,42.90
2018-04-30T06:12:59.391Z,45.20
2018-04-30T06:14:31.303Z,41.00
2018-04-30T06:16:03.017Z,41.70
2018-04-30T06:17:34.891Z,42.80
2018-04-30T06:19:06.641Z,39.70
2018-04-30T06:20:38.705Z,38.40
2018-04-30T06:22:10.266Z,39.80
2018-04-30T06:23:42.078Z,41.70
2018-04-30T06:25:13.890Z,40.10
2018-04-30T06:26:45.815Z,41.80
2018-04-30T06:28:17.516Z,41.40
2018-04-30T06:29:49.329Z,35.90
2018-04-30T06:31:21.142Z,36.20
2018-04-30T06:32:53.053Z,35.70
2018-04-30T06:34:24.778Z,38.90
2018-04-30T06:35:56.579Z,35.90
2018-04-30T06:37:28.390Z,41.50
2018-04-30T06:39:00.204Z,37.60
2018-04-30T06:40:32.017Z,41.10
2018-04-30T06:42:03.829Z,38.50
2018-04-30T06:43:35.642Z,35.70
2018-04-30T06:45:07.456Z,40.50
2018-04-30T06:46:39.267Z,36.50
2018-04-30T06:48:11.083Z,31.00
2018-04-30T06:49:42.891Z,29.90
2018-04-30T06:51:15.005Z,33.90
2018-04-30T06:52:46.520Z,29.10
2018-04-30T06:54:18.329Z,36.00
2018-04-30T06:55:50.142Z,33.10
2018-04-30T06:57:22.205Z,32.70
2018-04-30T06:58:53.766Z,29.50
2018-04-30T07:00:25.661Z,32.90
2018-04-30T07:01:57.391Z,29.50
2018-04-30T07:03:29.204Z,34.00
2018-04-30T07:05:01.017Z,30.00
2018-04-30T07:06:32.829Z,32.40
2018-04-30T07:08:04.641Z,30.00
2018-04-30T07:09:36.696Z,31.20
2018-04-30T07:11:08.265Z,30.50
2018-04-30T07:12:40.079Z,31.60
2018-04-30T07:14:11.891Z,30.70
2018-04-30T07:15:43.705Z,32.50
2018-04-30T07:17:15.515Z,30.00
2018-04-30T07:18:47.328Z,32.50
2018-04-30T07:20:19.140Z,34.30
2018-04-30T07:21:51.202Z,33.00
2018-04-30T07:23:22.766Z,36.40
2018-04-30T07:24:54.578Z,36.50
2018-04-30T07:26:26.390Z,38.20
2018-04-30T07:27:58.954Z,33.80
2018-04-30T07:29:30.016Z,33.00
2018-04-30T07:31:01.828Z,31.20
2018-04-30T07:32:33.639Z,40.90
2018-04-30T07:34:05.457Z,32.60
2018-04-30T07:35:37.320Z,30.40
2018-04-30T07:37:09.132Z,27.80
2018-04-30T07:38:40.944Z,32.40
2018-04-30T07:40:12.758Z,34.00
2018-04-30T07:41:44.513Z,31.20
2018-04-30T07:43:16.324Z,29.50
2018-04-30T07:44:48.137Z,28.30
2018-04-30T07:46:20.050Z,29.00
2018-04-30T07:47:51.762Z,27.30
2018-04-30T07:49:23.575Z,29.10
2018-04-30T07:50:55.392Z,27.70
2018-04-30T07:52:27.448Z,29.00
2018-04-30T07:53:59.010Z,28.90
2018-04-30T07:55:30.823Z,29.00
2018-04-30T07:57:02.634Z,33.00
2018-04-30T07:58:34.597Z,29.40
2018-04-30T08:00:06.260Z,28.70
2018-04-30T08:01:38.071Z,29.30
2018-04-30T08:03:09.893Z,28.10
2018-04-30T08:04:41.795Z,30.50
2018-04-30T08:06:13.508Z,31.70
2018-04-30T08:07:45.321Z,29.90
2018-04-30T08:09:17.132Z,24.70
2018-04-30T08:10:48.944Z,26.10
2018-04-30T08:12:20.757Z,27.10
2018-04-30T08:13:52.568Z,28.50
2018-04-30T08:15:24.381Z,23.40
2018-04-30T08:16:56.196Z,20.00
2018-04-30T08:18:28.005Z,22.90
2018-04-30T08:19:59.817Z,22.50
2018-04-30T08:21:31.682Z,20.40
2018-04-30T08:23:03.791Z,20.00
2018-04-30T08:24:35.252Z,18.10
2018-04-30T08:26:07.064Z,17.30
2018-04-30T08:27:38.931Z,16.90
2018-04-30T08:29:10.688Z,18.40
2018-04-30T08:30:42.499Z,16.60
2018-04-30T08:32:14.311Z,18.00
2018-04-30T08:33:46.123Z,17.30
2018-04-30T08:35:17.936Z,16.30
2018-04-30T08:36:49.748Z,15.40
2018-04-30T08:38:21.560Z,16.00
2018-04-30T08:39:53.372Z,16.20
2018-04-30T08:41:25.283Z,17.20
2018-04-30T08:42:56.996Z,16.70
2018-04-30T08:44:28.807Z,18.30
2018-04-30T08:46:00.620Z,19.20
2018-04-30T08:47:32.431Z,20.40
2018-04-30T08:49:04.243Z,20.10
2018-04-30T08:50:36.055Z,20.70
2018-04-30T08:52:07.873Z,17.40
2018-04-30T08:53:39.678Z,20.60
2018-04-30T08:55:11.490Z,20.40
2018-04-30T08:56:43.302Z,17.50
2018-04-30T08:58:15.115Z,19.30
2018-04-30T08:59:47.180Z,22.70
2018-04-30T09:01:18.740Z,17.80
2018-04-30T09:02:50.551Z,17.00
2018-04-30T09:04:22.362Z,16.80
2018-04-30T09:05:54.175Z,20.70
2018-04-30T09:07:25.987Z,17.80
2018-04-30T09:08:57.800Z,18.70
2018-04-30T09:10:29.611Z,18.50
2018-04-30T09:12:01.426Z,19.90
2018-04-30T09:13:33.234Z,21.00
2018-04-30T09:15:05.108Z,22.10
2018-04-30T09:16:36.935Z,23.10
2018-04-30T09:18:08.770Z,24.20
2018-04-30T09:19:40.481Z,23.20
2018-04-30T09:21:12.294Z,21.90
2018-04-30T09:22:44.105Z,19.10
2018-04-30T09:24:15.917Z,22.10
2018-04-30T09:25:47.730Z,20.60
2018-04-30T09:27:19.542Z,20.60
2018-04-30T09:28:51.354Z,20.70
2018-04-30T09:30:23.167Z,21.60
2018-04-30T09:31:55.511Z,19.70
2018-04-30T09:33:26.792Z,18.90
2018-04-30T09:34:58.630Z,20.40
2018-04-30T09:36:30.516Z,22.40
2018-04-30T09:38:02.229Z,23.00
2018-04-30T09:39:34.040Z,21.80
2018-04-30T09:41:05.853Z,24.60
2018-04-30T09:42:37.666Z,24.50
2018-04-30T09:44:09.480Z,22.80
2018-04-30T09:45:41.493Z,24.90
2018-04-30T09:47:13.709Z,22.20
2018-04-30T09:48:45.521Z,22.90
2018-04-30T09:50:16.736Z,24.50
2018-04-30T09:51:48.540Z,21.60
2018-04-30T09:53:20.352Z,27.30
2018-04-30T09:54:52.516Z,25.70
2018-04-30T09:56:23.977Z,21.90
2018-04-30T09:57:55.836Z,21.70
2018-04-30T10:00:59.415Z,20.30
2018-04-30T10:02:31.433Z,21.60
2018-04-30T10:04:03.353Z,21.60
2018-04-30T10:05:35.361Z,19.10
2018-04-30T10:07:06.669Z,19.80
2018-04-30T10:08:38.482Z,22.10
2018-04-30T10:10:10.298Z,21.30
2018-04-30T10:11:42.107Z,24.50
2018-04-30T10:13:14.021Z,20.50
2018-04-30T10:14:45.735Z,22.70
2018-04-30T10:16:17.548Z,25.40
2018-04-30T10:19:21.178Z,20.70
2018-04-30T10:20:52.990Z,20.60
2018-04-30T10:22:24.805Z,19.80
2018-04-30T10:23:57.028Z,18.70
2018-04-30T10:25:28.686Z,20.00
2018-04-30T10:27:00.250Z,18.30
2018-04-30T10:28:32.088Z,18.30
2018-04-30T10:30:03.882Z,17.90
2018-04-30T10:31:35.874Z,17.60
2018-04-30T10:33:07.717Z,19.50
2018-04-30T10:36:11.150Z,16.90
2018-04-30T10:39:14.785Z,18.30
2018-04-30T10:40:46.674Z,16.50
2018-04-30T10:42:18.421Z,15.70
2018-04-30T10:43:50.240Z,17.60
2018-04-30T10:45:22.059Z,19.10
2018-04-30T10:46:53.878Z,17.40
2018-04-30T10:48:25.698Z,16.30
2018-04-30T10:49:57.721Z,18.80
2018-04-30T10:53:01.457Z,17.80
2018-04-30T10:56:04.796Z,19.50
2018-04-30T10:57:36.923Z,20.70
2018-04-30T10:59:08.535Z,22.70
2018-04-30T11:00:40.253Z,24.10
2018-04-30T11:02:12.072Z,19.70
2018-04-30T11:03:43.891Z,20.40
2018-04-30T11:05:15.710Z,20.20
2018-04-30T11:06:47.529Z,21.70
2018-04-30T11:09:51.167Z,22.70
2018-04-30T11:11:23.391Z,20.70
2018-04-30T11:12:54.807Z,21.00
2018-04-30T11:14:26.627Z,23.00
2018-04-30T11:15:58.448Z,22.20
2018-04-30T11:17:30.266Z,24.30
2018-04-30T11:19:02.088Z,22.30
2018-04-30T11:20:33.906Z,25.10
2018-04-30T11:22:05.727Z,22.20
2018-04-30T11:23:37.550Z,21.60
2018-04-30T11:25:09.677Z,22.10
2018-04-30T11:26:41.192Z,23.60
2018-04-30T11:28:13.321Z,21.40
2018-04-30T11:29:44.933Z,25.40
2018-04-30T11:31:16.653Z,23.60
2018-04-30T11:32:48.475Z,21.80
2018-04-30T11:34:20.296Z,23.00
2018-04-30T11:35:52.117Z,22.00
2018-04-30T11:37:23.938Z,22.50
2018-04-30T11:38:55.759Z,23.70
2018-04-30T11:40:27.581Z,21.10
2018-04-30T11:41:59.404Z,22.80
2018-04-30T11:43:31.226Z,24.30
2018-04-30T11:45:03.047Z,22.40
2018-04-30T11:46:34.871Z,24.30
2018-04-30T11:48:06.794Z,20.80
2018-04-30T11:49:38.512Z,23.70
2018-04-30T11:51:10.339Z,20.90
2018-04-30T11:52:42.160Z,19.40
2018-04-30T11:54:13.980Z,23.40
2018-04-30T11:55:45.800Z,20.00
2018-04-30T11:57:17.623Z,20.80
2018-04-30T11:58:49.447Z,17.50
2018-04-30T12:00:21.274Z,19.10
2018-04-30T12:01:53.090Z,19.20
2018-04-30T12:03:24.913Z,18.40
2018-04-30T12:04:56.761Z,18.10
2018-04-30T12:06:28.658Z,18.10
2018-04-30T12:08:00.382Z,18.70
2018-04-30T12:09:32.205Z,17.30
2018-04-30T12:11:04.067Z,16.90
2018-04-30T12:12:35.851Z,15.20
2018-04-30T12:14:07.674Z,15.80
2018-04-30T12:15:39.498Z,15.60
2018-04-30T12:18:43.145Z,15.60
2018-04-30T12:20:14.970Z,16.40
2018-04-30T12:21:46.794Z,15.60
2018-04-30T12:23:18.618Z,17.40
2018-04-30T12:24:50.584Z,16.30
2018-04-30T12:26:22.265Z,16.80
2018-04-30T12:27:54.089Z,15.90
2018-04-30T12:29:25.913Z,16.30
2018-04-30T12:30:57.738Z,17.20
2018-04-30T12:32:29.561Z,15.70
2018-04-30T12:34:01.385Z,17.80
2018-04-30T12:35:33.210Z,15.80
2018-04-30T12:37:05.033Z,15.80
2018-04-30T12:38:36.859Z,15.80
2018-04-30T12:40:08.682Z,15.90
2018-04-30T12:41:40.505Z,15.70
2018-04-30T12:43:12.431Z,15.40
2018-04-30T12:44:44.153Z,16.00
2018-04-30T12:46:15.979Z,16.90
2018-04-30T12:47:47.802Z,16.30
2018-04-30T12:49:19.628Z,15.50
2018-04-30T12:50:51.531Z,15.80
2018-04-30T12:52:23.276Z,14.80
2018-04-30T12:53:55.100Z,16.80
2018-04-30T12:55:26.956Z,15.30
2018-04-30T12:56:58.755Z,15.30
2018-04-30T12:58:30.573Z,14.50
2018-04-30T13:00:02.398Z,15.50
2018-04-30T13:01:34.423Z,13.60
2018-04-30T13:03:06.051Z,14.10
2018-04-30T13:04:37.871Z,12.50
2018-04-30T13:06:09.694Z,13.20
2018-04-30T13:07:41.523Z,11.90
2018-04-30T13:10:45.168Z,10.70
2018-04-30T13:12:16.993Z,11.10
2018-04-30T13:13:48.827Z,9.00
2018-04-30T13:15:20.712Z,9.70
2018-04-30T13:16:52.466Z,8.90
2018-04-30T13:18:24.291Z,7.30
2018-04-30T13:19:56.216Z,8.20
2018-04-30T13:21:28.014Z,7.80
2018-04-30T13:22:59.767Z,6.90
2018-04-30T13:24:31.590Z,6.20
2018-04-30T13:26:03.415Z,6.70
2018-04-30T13:27:35.448Z,8.90
2018-04-30T13:29:07.369Z,7.20
2018-04-30T13:30:38.892Z,7.30
2018-04-30T13:32:10.865Z,6.10
2018-04-30T13:33:42.542Z,6.30
2018-04-30T13:35:14.366Z,5.30
2018-04-30T13:38:18.119Z,4.80
2018-04-30T13:39:50.044Z,7.30
2018-04-30T13:41:21.666Z,10.20
2018-04-30T13:42:53.491Z,5.30
2018-04-30T13:45:57.142Z,5.30
2018-04-30T13:47:28.968Z,6.20
2018-04-30T13:49:00.795Z,7.90
2018-04-30T13:50:32.617Z,5.40
2018-04-30T13:52:04.442Z,5.80
2018-04-30T13:53:36.268Z,5.20
2018-04-30T13:55:08.096Z,6.80
2018-04-30T13:58:12.044Z,7.10
2018-04-30T13:59:43.569Z,7.10
2018-04-30T14:01:15.394Z,7.40
2018-04-30T14:02:47.223Z,6.40
2018-04-30T14:04:19.050Z,6.10
2018-04-30T14:05:50.871Z,7.20
2018-04-30T14:07:22.697Z,6.10
2018-04-30T14:08:54.523Z,5.70
2018-04-30T14:10:26.349Z,5.30
2018-04-30T14:11:58.174Z,5.10
2018-04-30T14:13:30.000Z,5.50
2018-04-30T14:16:33.967Z,6.00
2018-04-30T14:18:06.016Z,5.40
2018-04-30T14:19:37.302Z,6.50
2018-04-30T14:21:09.138Z,5.00
2018-04-30T14:22:40.954Z,5.20
2018-04-30T14:24:12.781Z,5.60
2018-04-30T14:25:44.604Z,5.10
2018-04-30T14:27:16.430Z,5.50
2018-04-30T14:28:48.407Z,5.20
2018-04-30T14:30:20.082Z,4.70
2018-04-30T14:31:52.109Z,4.40
2018-04-30T14:33:23.737Z,4.20
2018-04-30T14:34:55.860Z,5.00
2018-04-30T14:36:27.387Z,5.00
2018-04-30T14:37:59.234Z,5.90
2018-04-30T14:39:31.572Z,4.10
2018-04-30T14:42:34.688Z,4.30
2018-04-30T14:44:06.659Z,3.60
2018-04-30T14:45:38.340Z,4.30
2018-04-30T14:47:10.167Z,3.80
2018-04-30T14:53:17.981Z,3.90
2018-04-30T14:54:49.375Z,3.80
2018-04-30T14:57:53.482Z,4.10
2018-04-30T14:59:25.407Z,3.90
2018-04-30T15:00:56.605Z,3.80
2018-04-30T15:02:28.430Z,3.90
2018-04-30T15:04:00.266Z,3.70
2018-04-30T15:05:32.082Z,5.20
2018-04-30T15:07:03.909Z,3.80
2018-04-30T15:08:35.737Z,3.80
2018-04-30T15:11:39.492Z,3.60
2018-04-30T15:13:11.223Z,4.30
2018-04-30T15:14:43.046Z,3.60
2018-04-30T15:16:15.177Z,4.00
2018-04-30T15:17:46.775Z,4.00
2018-04-30T15:19:18.529Z,4.00
2018-04-30T15:20:50.355Z,5.30
2018-04-30T15:22:22.183Z,4.00
2018-04-30T15:23:54.010Z,3.10
2018-04-30T15:25:25.836Z,3.60
2018-04-30T15:31:33.700Z,4.60
2018-04-30T15:33:04.972Z,5.40
2018-04-30T15:34:36.803Z,4.50
2018-04-30T15:36:08.627Z,4.10
2018-04-30T15:37:40.452Z,5.10
2018-04-30T15:39:12.278Z,4.10
2018-04-30T15:40:44.106Z,4.10
2018-04-30T15:42:15.933Z,4.60
2018-04-30T15:43:47.760Z,4.50
2018-04-30T15:45:19.588Z,4.50
2018-04-30T15:46:51.718Z,4.00
2018-04-30T15:48:23.750Z,4.70
2018-04-30T15:49:55.172Z,4.10
2018-04-30T15:51:26.910Z,3.80
2018-04-30T15:52:58.727Z,4.60
2018-04-30T15:54:30.557Z,7.00
2018-04-30T15:56:02.383Z,4.30
2018-04-30T15:57:34.412Z,3.40
2018-04-30T16:00:38.168Z,3.30
2018-04-30T16:02:09.853Z,3.30
2018-04-30T16:03:41.516Z,3.50
2018-04-30T16:05:13.646Z,2.60
2018-04-30T16:06:45.168Z,4.20
2018-04-30T16:09:48.921Z,3.20
2018-04-30T16:11:20.648Z,3.30
2018-04-30T16:12:52.474Z,4.10
2018-04-30T16:14:24.301Z,3.70
2018-04-30T16:15:56.330Z,3.00
2018-04-30T16:17:27.954Z,4.50
2018-04-30T16:18:59.799Z,2.70
2018-04-30T16:20:31.607Z,3.20
2018-04-30T16:22:03.434Z,3.10
2018-04-30T16:23:35.464Z,3.10
2018-04-30T16:25:07.088Z,2.80
2018-04-30T16:26:38.916Z,8.90
2018-04-30T16:28:10.842Z,4.50
2018-04-30T16:29:42.570Z,3.40
2018-04-30T16:31:14.396Z,3.20
2018-04-30T16:32:46.224Z,3.90
2018-04-30T16:34:18.053Z,3.30
2018-04-30T16:35:49.880Z,3.20
2018-04-30T16:37:21.707Z,4.10
2018-04-30T16:38:53.536Z,3.10
2018-04-30T16:43:29.120Z,4.60
2018-04-30T16:46:32.677Z,3.80
2018-04-30T16:48:04.503Z,3.60
2018-04-30T16:49:36.331Z,3.70
2018-04-30T16:51:08.157Z,3.50
2018-04-30T16:52:39.985Z,3.70
2018-04-30T16:54:11.810Z,4.40
2018-04-30T16:57:15.470Z,3.90
2018-04-30T16:58:47.495Z,4.40
2018-04-30T17:00:19.119Z,4.20
2018-04-30T17:01:50.950Z,3.80
2018-04-30T17:03:22.872Z,7.40
2018-04-30T17:04:54.603Z,6.10
2018-04-30T17:06:26.426Z,8.20
2018-04-30T17:07:58.253Z,5.30
2018-04-30T17:09:30.081Z,4.90
2018-04-30T17:11:01.909Z,4.50
2018-04-30T17:14:05.564Z,4.10
2018-04-30T17:15:37.692Z,4.10
2018-04-30T17:17:09.721Z,4.60
2018-04-30T17:18:41.044Z,4.70
2018-04-30T17:20:13.376Z,4.30
2018-04-30T17:23:17.231Z,4.60
2018-04-30T17:24:48.352Z,5.10
2018-04-30T17:26:20.178Z,6.60
2018-04-30T17:27:52.004Z,4.40
2018-04-30T17:29:23.831Z,4.80
2018-04-30T17:30:55.657Z,5.30
2018-04-30T17:32:27.483Z,4.80
2018-04-30T17:35:31.137Z,5.10
2018-04-30T17:37:02.961Z,5.10
2018-04-30T17:38:34.795Z,5.30
2018-04-30T17:40:06.612Z,5.90
2018-04-30T17:41:38.538Z,5.50
2018-04-30T17:43:10.269Z,6.20
2018-04-30T17:44:42.088Z,6.60
2018-04-30T17:46:13.913Z,5.00
2018-04-30T17:47:46.042Z,5.60
2018-04-30T17:49:17.562Z,5.90
2018-04-30T17:52:21.211Z,5.30
2018-04-30T17:53:53.239Z,4.40
2018-04-30T17:55:25.164Z,4.80
2018-04-30T17:56:56.686Z,4.70
2018-04-30T17:58:28.514Z,5.50
2018-04-30T18:00:00.574Z,7.70
2018-04-30T18:01:32.161Z,5.40
2018-04-30T18:03:03.985Z,5.40
2018-04-30T18:04:35.810Z,6.90
2018-04-30T18:06:07.944Z,5.30
2018-04-30T18:07:39.461Z,4.70
2018-04-30T18:09:11.284Z,6.30
2018-04-30T18:10:43.640Z,4.90
2018-04-30T18:12:14.934Z,7.00
2018-04-30T18:13:47.292Z,4.90
2018-04-30T18:15:18.583Z,5.70
2018-04-30T18:16:50.408Z,4.80
2018-04-30T18:18:22.332Z,4.10
2018-04-30T18:19:54.109Z,4.70
2018-04-30T18:21:25.881Z,15.80
2018-04-30T18:22:57.707Z,7.00
2018-04-30T18:24:29.530Z,5.20
2018-04-30T18:26:01.360Z,4.70
2018-04-30T18:27:33.181Z,5.10
2018-04-30T18:29:05.005Z,5.90
2018-04-30T18:30:36.979Z,5.20
2018-04-30T18:32:08.960Z,7.70
2018-04-30T18:33:40.479Z,4.80
2018-04-30T18:35:12.302Z,4.90
2018-04-30T18:36:44.228Z,5.50
2018-04-30T18:38:15.952Z,5.40
2018-04-30T18:39:47.778Z,6.20
2018-04-30T18:41:19.601Z,5.60
2018-04-30T18:42:51.425Z,5.60
2018-04-30T18:44:23.255Z,5.40
2018-04-30T18:45:55.075Z,5.70
2018-04-30T18:48:58.875Z,5.00
2018-04-30T18:50:30.549Z,6.70
2018-04-30T18:52:02.373Z,6.10
2018-04-30T18:53:34.198Z,5.70
2018-04-30T18:55:06.122Z,5.10
2018-04-30T18:56:37.846Z,6.40
2018-04-30T18:58:09.670Z,5.60
2018-04-30T18:59:41.495Z,5.60
2018-04-30T19:01:13.420Z,6.20
2018-04-30T19:02:45.144Z,5.70
2018-04-30T19:04:16.968Z,7.30
2018-04-30T19:05:48.999Z,6.20
2018-04-30T19:07:20.617Z,6.50
2018-04-30T19:08:52.443Z,7.20
2018-04-30T19:10:24.265Z,6.50
2018-04-30T19:11:56.088Z,5.50
2018-04-30T19:13:28.012Z,6.20
2018-04-30T19:14:59.735Z,6.20
2018-04-30T19:16:31.864Z,5.40
2018-04-30T19:18:04.521Z,6.30
2018-04-30T19:19:36.443Z,6.00
2018-04-30T19:21:07.457Z,6.30
2018-04-30T19:24:10.678Z,7.20
2018-04-30T19:25:42.499Z,6.00
2018-04-30T19:27:14.374Z,5.50
2018-04-30T19:28:46.148Z,5.70
2018-04-30T19:30:17.967Z,5.20
2018-04-30T19:31:49.894Z,6.80
2018-04-30T19:33:21.611Z,6.30
2018-04-30T19:34:53.433Z,5.50
2018-04-30T19:36:25.450Z,5.80
2018-04-30T19:37:57.078Z,5.80
2018-04-30T19:39:28.899Z,6.70
2018-04-30T19:41:00.719Z,5.50
2018-04-30T19:42:32.543Z,8.50
2018-04-30T19:44:04.371Z,5.70
2018-04-30T19:45:36.183Z,6.40
2018-04-30T19:47:08.154Z,6.60
2018-04-30T19:48:39.825Z,5.90
2018-04-30T19:50:11.746Z,6.60
2018-04-30T19:51:43.465Z,6.20
2018-04-30T19:53:15.489Z,6.50
2018-04-30T19:54:47.108Z,6.70
2018-04-30T19:56:18.928Z,6.50
2018-04-30T19:57:50.749Z,6.70
2018-04-30T19:59:22.571Z,6.80
2018-04-30T20:00:54.389Z,7.60
2018-04-30T20:02:26.211Z,6.60
2018-04-30T20:03:58.032Z,7.00
2018-04-30T20:05:29.852Z,6.70
2018-04-30T20:07:01.674Z,6.30
2018-04-30T20:08:33.594Z,6.00
2018-04-30T20:10:05.320Z,6.90
2018-04-30T20:11:37.135Z,6.60
2018-04-30T20:13:08.956Z,8.10
2018-04-30T20:14:40.778Z,7.50
2018-04-30T20:16:12.602Z,6.40
2018-04-30T20:17:44.419Z,6.80
2018-04-30T20:19:16.385Z,7.20
2018-04-30T20:20:48.060Z,7.60
2018-04-30T20:22:19.879Z,7.10
2018-04-30T20:23:51.700Z,8.90
2018-04-30T20:25:23.520Z,6.30
2018-04-30T20:26:55.641Z,6.90
2018-04-30T20:28:27.161Z,6.40
2018-04-30T20:29:58.981Z,7.70
2018-04-30T20:31:30.801Z,7.40
2018-04-30T20:33:02.626Z,7.50
2018-04-30T20:34:34.441Z,6.70
2018-04-30T20:36:06.261Z,7.50
2018-04-30T20:37:38.085Z,7.30
2018-04-30T20:39:09.900Z,8.00
2018-04-30T20:40:41.721Z,6.70
2018-04-30T20:42:13.563Z,7.20
2018-04-30T20:43:45.359Z,7.80
2018-04-30T20:45:17.279Z,8.00
2018-04-30T20:46:48.999Z,8.00